sensor_id;sensor_type;location;lat;lon;timestamp;P1;durP1;ratioP1;P2;durP2;ratioP2
2201;SDS011;1107;48.654;9.250;2023-04-15T08:30:53;5.93;;;5.23;;
2201;SDS011;1107;48.654;9.250;2023-04-15T08:35:48;5.20;;;4.90;;
2201;SDS011;1107;48.654;9.250;2023-04-15T08:40:44;5.43;;;5.07;;
2201;SDS011;1107;48.654;9.250;2023-04-15T08:43:12;5.43;;;5.13;;
2201;SDS011;1107;48.654;9.250;2023-04-15T08:45:45;6.30;;;4.50;;
2201;SDS011;1107;48.654;9.250;2023-04-15T08:48:16;5.67;;;5.37;;
2201;SDS011;1107;48.654;9.250;2023-04-15T10:04:57;4.20;;;4.00;;
2201;SDS011;1107;48.654;9.250;2023-04-15T10:07:25;4.67;;;4.37;;
2201;SDS011;1107;48.654;9.250;2023-04-15T10:09:52;5.57;;;5.17;;
2201;SDS011;1107;48.654;9.250;2023-04-15T10:12:20;6.23;;;5.63;;
2201;SDS011;1107;48.654;9.250;2023-04-15T10:14:50;5.27;;;4.87;;
2201;SDS011;1107;48.654;9.250;2023-04-15T10:17:22;4.13;;;3.90;;
2201;SDS011;1107;48.654;9.250;2023-04-15T10:19:52;4.07;;;3.83;;
2201;SDS011;1107;48.654;9.250;2023-04-15T10:22:20;5.97;;;3.93;;
2201;SDS011;1107;48.654;9.250;2023-04-15T10:24:48;5.03;;;4.10;;
2201;SDS011;1107;48.654;9.250;2023-04-15T10:27:16;4.43;;;4.13;;
2201;SDS011;1107;48.654;9.250;2023-04-15T10:29:44;8.03;;;4.17;;
2201;SDS011;1107;48.654;9.250;2023-04-15T10:32:11;4.90;;;4.50;;
2201;SDS011;1107;48.654;9.250;2023-04-15T10:34:41;3.10;;;2.90;;
2201;SDS011;1107;48.654;9.250;2023-04-15T10:37:09;4.20;;;3.60;;
2201;SDS011;1107;48.654;9.250;2023-04-15T10:39:40;5.10;;;4.67;;
2201;SDS011;1107;48.654;9.250;2023-04-15T10:42:09;9.37;;;4.70;;
2201;SDS011;1107;48.654;9.250;2023-04-15T10:44:36;5.90;;;3.80;;
2201;SDS011;1107;48.654;9.250;2023-04-15T10:47:06;3.40;;;3.20;;
2201;SDS011;1107;48.654;9.250;2023-04-15T10:49:48;4.80;;;4.00;;
2201;SDS011;1107;48.654;9.250;2023-04-15T10:52:17;3.87;;;3.67;;
2201;SDS011;1107;48.654;9.250;2023-04-15T10:54:49;4.47;;;4.17;;
2201;SDS011;1107;48.654;9.250;2023-04-15T10:57:27;4.90;;;4.60;;
2201;SDS011;1107;48.654;9.250;2023-04-15T11:00:10;4.40;;;4.20;;
2201;SDS011;1107;48.654;9.250;2023-04-15T11:02:39;4.87;;;3.90;;
2201;SDS011;1107;48.654;9.250;2023-04-15T11:05:09;4.40;;;4.00;;
2201;SDS011;1107;48.654;9.250;2023-04-15T11:07:38;3.93;;;3.63;;
2201;SDS011;1107;48.654;9.250;2023-04-15T11:13:19;3.30;;;3.10;;
2201;SDS011;1107;48.654;9.250;2023-04-15T11:15:49;3.40;;;3.10;;
2201;SDS011;1107;48.654;9.250;2023-04-15T11:18:17;3.00;;;2.80;;
2201;SDS011;1107;48.654;9.250;2023-04-15T11:20:48;3.60;;;3.30;;
2201;SDS011;1107;48.654;9.250;2023-04-15T11:23:16;6.10;;;4.57;;
2201;SDS011;1107;48.654;9.250;2023-04-15T11:25:44;5.37;;;4.97;;
2201;SDS011;1107;48.654;9.250;2023-04-15T11:28:12;4.50;;;4.20;;
2201;SDS011;1107;48.654;9.250;2023-04-15T11:30:39;5.13;;;3.97;;
2201;SDS011;1107;48.654;9.250;2023-04-15T11:33:08;4.40;;;4.10;;
2201;SDS011;1107;48.654;9.250;2023-04-15T11:35:38;4.40;;;4.03;;
2201;SDS011;1107;48.654;9.250;2023-04-15T11:38:09;4.43;;;4.03;;
2201;SDS011;1107;48.654;9.250;2023-04-15T11:40:37;5.03;;;4.73;;
2201;SDS011;1107;48.654;9.250;2023-04-15T11:43:06;4.07;;;3.77;;
2201;SDS011;1107;48.654;9.250;2023-04-15T11:45:34;5.17;;;4.10;;
2201;SDS011;1107;48.654;9.250;2023-04-15T11:48:04;5.50;;;3.83;;
2201;SDS011;1107;48.654;9.250;2023-04-15T11:50:33;4.37;;;3.97;;
2201;SDS011;1107;48.654;9.250;2023-04-15T11:53:00;4.50;;;4.17;;
2201;SDS011;1107;48.654;9.250;2023-04-15T11:55:30;5.17;;;4.30;;
2201;SDS011;1107;48.654;9.250;2023-04-15T11:58:09;10.13;;;3.83;;
2201;SDS011;1107;48.654;9.250;2023-04-15T12:00:38;5.90;;;3.70;;
2201;SDS011;1107;48.654;9.250;2023-04-15T12:03:12;4.47;;;4.17;;
2201;SDS011;1107;48.654;9.250;2023-04-15T12:11:18;5.07;;;4.70;;
2201;SDS011;1107;48.654;9.250;2023-04-15T12:13:46;4.63;;;4.23;;
2201;SDS011;1107;48.654;9.250;2023-04-15T12:16:15;4.57;;;4.27;;
2201;SDS011;1107;48.654;9.250;2023-04-15T12:18:44;5.10;;;4.17;;
2201;SDS011;1107;48.654;9.250;2023-04-15T12:21:12;7.00;;;4.43;;
2201;SDS011;1107;48.654;9.250;2023-04-15T12:23:40;4.60;;;4.40;;
2201;SDS011;1107;48.654;9.250;2023-04-15T12:26:13;5.10;;;4.80;;
2201;SDS011;1107;48.654;9.250;2023-04-15T12:28:42;5.30;;;4.67;;
2201;SDS011;1107;48.654;9.250;2023-04-15T12:31:10;4.30;;;4.10;;
2201;SDS011;1107;48.654;9.250;2023-04-15T12:33:37;5.00;;;4.60;;
2201;SDS011;1107;48.654;9.250;2023-04-15T12:36:05;4.43;;;4.13;;
2201;SDS011;1107;48.654;9.250;2023-04-15T12:38:32;5.13;;;4.83;;
2201;SDS011;1107;48.654;9.250;2023-04-15T12:40:59;5.27;;;4.80;;
2201;SDS011;1107;48.654;9.250;2023-04-15T12:43:26;4.27;;;4.07;;
2201;SDS011;1107;48.654;9.250;2023-04-15T12:45:54;5.57;;;5.17;;
2201;SDS011;1107;48.654;9.250;2023-04-15T12:48:21;6.00;;;5.60;;
2201;SDS011;1107;48.654;9.250;2023-04-15T12:53:15;5.60;;;5.13;;
2201;SDS011;1107;48.654;9.250;2023-04-15T12:55:42;4.97;;;4.63;;
2201;SDS011;1107;48.654;9.250;2023-04-15T12:58:09;5.37;;;4.87;;
2201;SDS011;1107;48.654;9.250;2023-04-15T13:00:36;5.80;;;5.40;;
2201;SDS011;1107;48.654;9.250;2023-04-15T13:03:05;5.00;;;4.60;;
2201;SDS011;1107;48.654;9.250;2023-04-15T13:05:32;5.50;;;5.00;;
2201;SDS011;1107;48.654;9.250;2023-04-15T13:08:01;5.80;;;5.30;;
2201;SDS011;1107;48.654;9.250;2023-04-15T13:10:28;5.63;;;4.97;;
2201;SDS011;1107;48.654;9.250;2023-04-15T13:12:55;7.03;;;4.70;;
2201;SDS011;1107;48.654;9.250;2023-04-15T13:15:22;5.23;;;4.83;;
2201;SDS011;1107;48.654;9.250;2023-04-15T13:17:50;4.63;;;4.33;;
2201;SDS011;1107;48.654;9.250;2023-04-15T13:20:18;4.80;;;4.40;;
2201;SDS011;1107;48.654;9.250;2023-04-15T13:22:45;4.60;;;4.30;;
2201;SDS011;1107;48.654;9.250;2023-04-15T13:25:12;6.53;;;4.40;;
2201;SDS011;1107;48.654;9.250;2023-04-15T13:27:39;4.93;;;4.47;;
2201;SDS011;1107;48.654;9.250;2023-04-15T13:30:06;4.40;;;4.20;;
2201;SDS011;1107;48.654;9.250;2023-04-15T13:32:34;4.80;;;4.50;;
2201;SDS011;1107;48.654;9.250;2023-04-15T13:35:00;4.17;;;3.87;;
2201;SDS011;1107;48.654;9.250;2023-04-15T13:37:29;4.13;;;3.83;;
2201;SDS011;1107;48.654;9.250;2023-04-15T13:39:56;3.63;;;3.33;;
2201;SDS011;1107;48.654;9.250;2023-04-15T13:42:23;4.27;;;3.97;;
2201;SDS011;1107;48.654;9.250;2023-04-15T13:44:51;4.30;;;3.67;;
2201;SDS011;1107;48.654;9.250;2023-04-15T13:47:18;4.33;;;4.13;;
2201;SDS011;1107;48.654;9.250;2023-04-15T13:49:46;3.77;;;3.57;;
2201;SDS011;1107;48.654;9.250;2023-04-15T13:52:13;4.33;;;4.03;;
2201;SDS011;1107;48.654;9.250;2023-04-15T13:54:41;3.63;;;3.40;;
2201;SDS011;1107;48.654;9.250;2023-04-15T13:57:08;4.07;;;3.67;;
2201;SDS011;1107;48.654;9.250;2023-04-15T13:59:35;4.17;;;3.97;;
2201;SDS011;1107;48.654;9.250;2023-04-15T14:02:02;3.37;;;3.10;;
2201;SDS011;1107;48.654;9.250;2023-04-15T14:04:29;3.57;;;3.37;;
2201;SDS011;1107;48.654;9.250;2023-04-15T14:06:56;2.80;;;2.60;;
2201;SDS011;1107;48.654;9.250;2023-04-15T14:09:23;3.30;;;3.00;;
2201;SDS011;1107;48.654;9.250;2023-04-15T14:11:52;3.00;;;2.80;;
2201;SDS011;1107;48.654;9.250;2023-04-15T14:14:19;2.60;;;2.40;;
2201;SDS011;1107;48.654;9.250;2023-04-15T14:16:46;2.70;;;2.50;;
2201;SDS011;1107;48.654;9.250;2023-04-15T14:19:13;8.03;;;2.60;;
2201;SDS011;1107;48.654;9.250;2023-04-15T14:21:40;2.77;;;2.57;;
2201;SDS011;1107;48.654;9.250;2023-04-15T14:24:07;2.70;;;2.50;;
2201;SDS011;1107;48.654;9.250;2023-04-15T14:26:34;2.80;;;2.60;;
2201;SDS011;1107;48.654;9.250;2023-04-15T14:29:02;3.03;;;2.60;;
2201;SDS011;1107;48.654;9.250;2023-04-15T14:33:56;1.70;;;1.40;;
2201;SDS011;1107;48.654;9.250;2023-04-15T14:36:23;1.60;;;1.33;;
2201;SDS011;1107;48.654;9.250;2023-04-15T14:38:50;2.53;;;1.30;;
